Time;durP1;ratioP1;P1;durP2;ratioP2;P2;SDS_P1;SDS_P2;PMS_P1;PMS_P2;Temp;Humidity;BMP_temperature;BMP_pressure;BME280_temperature;BME280_humidity;BME280_pressure;Samples;Min_cycle;Max_cycle;Signal;HPM_P1;HPM_P2
2023/03/04 00:02:19;;;;;;;;;;;;;;;2.27;78.14;100837.63;105176;1287;76724;-77
2023/03/04 00:05:06;;;;;;;;;;;;;;;2.27;78.11;100835.41;105125;1288;69931;-77
2023/03/04 00:07:52;;;;;;;;;;;;;;;2.27;78.11;100831.00;105832;1288;73292;-77
2023/03/04 00:10:38;;;;;;;;;;;;;;;2.28;78.15;100827.95;105068;1293;62092;-77
2023/03/04 00:13:24;;;;;;;;;;;;;;;2.28;78.05;100823.19;105152;1287;61985;-77
2023/03/04 00:16:10;;;;;;;;;;;;;;;2.28;78.06;100823.70;105238;1287;74781;-77
2023/03/04 00:18:56;;;;;;;;;;;;;;;2.28;78.16;100818.09;105126;1287;68390;-77
2023/03/04 00:21:43;;;;;;;;;;;;;;;2.29;78.06;100810.98;105158;1287;72085;-77
2023/03/04 00:24:30;;;;;;;;;;;;;;;2.30;78.03;100810.64;104865;1291;61873;-77
2023/03/04 00:27:16;;;;;;;;;;;;;;;2.29;78.04;100809.78;104820;1291;61936;-77
2023/03/04 00:30:02;;;;;;;;;;;;;;;2.30;78.10;100803.50;104782;1291;74051;-77
2023/03/04 00:32:49;;;;;;;;;;;;;;;2.30;78.10;100799.42;104767;1290;68548;-77
2023/03/04 00:35:35;;;;;;;;;;;;;;;2.30;78.07;100790.75;104808;1291;75400;-77
2023/03/04 00:38:21;;;;;;;;;;;;;;;2.30;78.03;100784.63;104758;1291;61924;-77
2023/03/04 00:41:07;;;;;;;;;;;;;;;2.30;78.08;100781.73;104815;1291;62033;-77
2023/03/04 00:43:53;;;;;;;;;;;;;;;2.30;78.07;100776.63;104630;1291;74169;-78
2023/03/04 00:46:39;;;;;;;;;;;;;;;2.30;78.10;100772.55;104760;1291;67507;-77
2023/03/04 00:49:25;;;;;;;;;;;;;;;2.30;78.02;100764.38;104794;1291;73945;-77
2023/03/04 00:52:12;;;;;;;;;;;;;;;2.30;78.07;100756.91;104675;1291;62098;-77
2023/03/04 00:54:58;;;;;;;;;;;;;;;2.30;78.05;100753.17;104754;1291;62139;-77
2023/03/04 00:57:44;;;;;;;;;;;;;;;2.31;78.07;100746.55;105086;1287;74714;-77
2023/03/04 01:00:30;;;;;;;;;;;;;;;2.32;78.10;100739.23;105048;1288;67144;-77
2023/03/04 01:03:16;;;;;;;;;;;;;;;2.31;78.06;100735.67;104990;1288;72574;-77
2023/03/04 01:06:02;;;;;;;;;;;;;;;2.33;78.00;100728.20;105160;1288;60480;-77
2023/03/04 01:08:48;;;;;;;;;;;;;;;2.33;78.05;100719.54;105010;1287;60376;-77
2023/03/04 01:11:34;;;;;;;;;;;;;;;2.33;77.98;100711.89;105115;1288;75975;-77
2023/03/04 01:14:21;;;;;;;;;;;;;;;2.33;78.01;100702.54;105178;1288;67367;-77
2023/03/04 01:17:07;;;;;;;;;;;;;;;2.33;78.03;100699.64;104938;1288;71150;-77
2023/03/04 01:19:53;;;;;;;;;;;;;;;2.34;78.00;100693.02;105078;1290;60591;-77
2023/03/04 01:22:39;;;;;;;;;;;;;;;2.34;78.07;100690.30;105043;1287;60291;-77
2023/03/04 01:25:25;;;;;;;;;;;;;;;2.34;78.06;100676.17;105125;1288;73983;-77
2023/03/04 01:28:11;;;;;;;;;;;;;;;2.34;78.08;100670.06;104996;1290;67169;-77
2023/03/04 01:30:57;;;;;;;;;;;;;;;2.34;78.02;100665.12;105087;1288;71985;-77
2023/03/04 01:33:43;;;;;;;;;;;;;;;2.33;78.01;100655.41;104948;1288;62162;-77
2023/03/04 01:36:30;;;;;;;;;;;;;;;2.32;78.04;100656.42;105101;1287;60234;-77
2023/03/04 01:39:16;;;;;;;;;;;;;;;2.32;78.04;100644.84;105092;1288;73965;-77
2023/03/04 01:42:02;;;;;;;;;;;;;;;2.31;78.07;100641.61;104946;1288;68595;-77
2023/03/04 01:44:49;;;;;;;;;;;;;;;2.32;78.07;100637.70;104980;1288;71225;-77
2023/03/04 01:47:35;;;;;;;;;;;;;;;2.31;78.03;100635.31;105050;1288;61975;-77
2023/03/04 01:50:27;;;;;;;;;;;;;;;2.32;78.02;100632.77;105055;1287;61930;-77
2023/03/04 01:53:20;;;;;;;;;;;;;;;2.32;78.04;100629.86;105165;1288;75182;-77
2023/03/04 01:56:12;;;;;;;;;;;;;;;2.32;78.09;100622.22;105173;1288;67309;-77
2023/03/04 01:59:25;;;;;;;;;;;;;;;2.32;78.05;100619.84;105025;1287;76084;-77
2023/03/04 02:02:11;;;;;;;;;;;;;;;2.32;77.99;100614.41;105076;1288;61916;-77
2023/03/04 02:04:57;;;;;;;;;;;;;;;2.33;78.05;100615.95;105093;1288;61862;-77
2023/03/04 02:07:43;;;;;;;;;;;;;;;2.33;78.04;100616.96;105125;1288;75366;-77
2023/03/04 02:10:30;;;;;;;;;;;;;;;2.33;78.05;100615.27;105019;1288;67159;-77
2023/03/04 02:13:16;;;;;;;;;;;;;;;2.33;78.00;100611.87;105125;1287;71473;-77
2023/03/04 02:16:02;;;;;;;;;;;;;;;2.34;77.97;100613.92;105036;1290;60495;-77
2023/03/04 02:18:48;;;;;;;;;;;;;;;2.33;77.99;100608.64;105145;1287;61436;-77
2023/03/04 02:21:34;;;;;;;;;;;;;;;2.33;77.99;100610.51;105042;1288;74045;-77
2023/03/04 02:24:41;;;;;;;;;;;;;;;2.33;77.98;100612.55;105099;1290;68194;-77
2023/03/04 02:27:27;;;;;;;;;;;;;;;2.33;77.91;100613.91;104451;1294;71626;-78
2023/03/04 02:30:13;;;;;;;;;;;;;;;2.33;77.92;100609.66;104552;1298;62182;-78
2023/03/04 02:33:00;;;;;;;;;;;;;;;2.34;77.92;100607.11;104372;1294;60256;-77
2023/03/04 02:35:46;;;;;;;;;;;;;;;2.33;77.88;100605.58;104509;1294;75400;-77
2023/03/04 02:38:32;;;;;;;;;;;;;;;2.33;77.88;100605.74;104505;1294;67503;-77
2023/03/04 02:41:21;;;;;;;;;;;;;;;2.34;77.88;100600.98;104572;1294;72414;-77
2023/03/04 02:44:15;;;;;;;;;;;;;;;2.33;77.88;100600.48;104507;1294;61927;-77
2023/03/04 02:47:02;;;;;;;;;;;;;;;2.34;77.83;100604.57;105584;1294;60153;-78
2023/03/04 02:49:48;;;;;;;;;;;;;;;2.34;77.87;100606.44;105513;1294;76562;-78
2023/03/04 02:52:34;;;;;;;;;;;;;;;2.35;77.86;100605.27;105188;1294;68423;-77
2023/03/04 02:55:21;;;;;;;;;;;;;;;2.35;77.83;100606.29;104343;1294;245080;-77
2023/03/04 02:58:08;;;;;;;;;;;;;;;2.37;77.80;100605.46;104524;1294;62301;-77
2023/03/04 03:00:54;;;;;;;;;;;;;;;2.38;77.87;100608.70;104476;1294;60641;-77
2023/03/04 03:03:40;;;;;;;;;;;;;;;2.38;77.82;100601.58;104592;1294;75330;-77
2023/03/04 03:06:26;;;;;;;;;;;;;;;2.38;77.81;100599.88;105153;1288;67302;-77
2023/03/04 03:09:12;;;;;;;;;;;;;;;2.38;77.83;100590.52;105159;1288;72872;-77
2023/03/04 03:11:58;;;;;;;;;;;;;;;2.38;77.79;100599.02;105195;1287;61962;-77
2023/03/04 03:14:44;;;;;;;;;;;;;;;2.37;77.77;100596.95;105057;1287;60981;-77
2023/03/04 03:17:30;;;;;;;;;;;;;;;2.37;77.82;100592.88;105247;1288;75403;-77
2023/03/04 03:20:17;;;;;;;;;;;;;;;2.37;77.85;100594.40;105162;1288;69958;-77
2023/03/04 03:23:03;;;;;;;;;;;;;;;2.37;77.85;100597.46;105039;1288;71277;-77
2023/03/04 03:25:49;;;;;;;;;;;;;;;2.37;77.80;100597.13;105051;1287;61655;-77
2023/03/04 03:28:35;;;;;;;;;;;;;;;2.37;77.81;100596.11;105071;1288;62081;-77
2023/03/04 03:31:21;;;;;;;;;;;;;;;2.37;77.83;100593.05;104974;1288;74094;-77
2023/03/04 03:34:07;;;;;;;;;;;;;;;2.37;77.80;100592.71;105186;1288;67971;-77
2023/03/04 03:36:53;;;;;;;;;;;;;;;2.37;77.78;100591.35;105083;1292;73057;-77
2023/03/04 03:39:40;;;;;;;;;;;;;;;2.38;77.82;100593.92;105168;1288;61875;-77
2023/03/04 03:42:26;;;;;;;;;;;;;;;2.38;77.78;100590.17;105194;1288;62046;-77
2023/03/04 03:45:12;;;;;;;;;;;;;;;2.38;77.81;100594.42;105139;1288;75785;-77
2023/03/04 03:47:58;;;;;;;;;;;;;;;2.38;77.81;100596.48;105104;1288;67264;-78
2023/03/04 03:50:45;;;;;;;;;;;;;;;2.39;77.78;100595.29;105171;1287;71409;-78
2023/03/04 03:53:31;;;;;;;;;;;;;;;2.39;77.78;100593.59;105183;1288;60260;-77
2023/03/04 03:56:17;;;;;;;;;;;;;;;2.39;77.79;100588.67;105239;1288;61879;-77
2023/03/04 03:59:03;;;;;;;;;;;;;;;2.40;77.80;100586.80;105122;1287;75778;-77
2023/03/04 04:01:49;;;;;;;;;;;;;;;2.39;77.80;100582.54;105160;1288;67725;-77
2023/03/04 04:04:35;;;;;;;;;;;;;;;2.40;77.76;100581.17;104960;1288;72401;-77
2023/03/04 04:07:21;;;;;;;;;;;;;;;2.40;77.82;100579.15;105134;1288;62104;-77
2023/03/04 04:10:08;;;;;;;;;;;;;;;2.40;77.82;100573.38;105187;1287;61908;-77
2023/03/04 04:12:54;;;;;;;;;;;;;;;2.40;77.78;100573.20;105154;1287;75522;-77
2023/03/04 04:15:40;;;;;;;;;;;;;;;2.40;77.75;100573.36;105167;1288;68343;-77
2023/03/04 04:18:26;;;;;;;;;;;;;;;2.41;77.83;100576.60;105130;1287;72125;-77
2023/03/04 04:21:13;;;;;;;;;;;;;;;2.41;77.76;100574.58;105158;1287;60620;-77
2023/03/04 04:23:59;;;;;;;;;;;;;;;2.42;77.77;100566.77;105076;1288;61924;-77
2023/03/04 04:26:45;;;;;;;;;;;;;;;2.43;77.80;100561.67;105120;1288;74773;-77
2023/03/04 04:29:31;;;;;;;;;;;;;;;2.43;77.82;100560.14;105178;1288;67524;-77
2023/03/04 04:32:17;;;;;;;;;;;;;;;2.43;77.83;100555.55;105012;1288;72592;-77
2023/03/04 04:35:04;;;;;;;;;;;;;;;2.43;77.82;100547.90;105108;1288;62696;-77
2023/03/04 04:37:50;;;;;;;;;;;;;;;2.43;77.83;100546.70;104995;1292;61798;-77
2023/03/04 04:40:36;;;;;;;;;;;;;;;2.42;77.80;100553.00;105029;1287;74153;-77
2023/03/04 04:43:22;;;;;;;;;;;;;;;2.42;77.83;100545.67;105062;1288;67341;-77
2023/03/04 04:46:08;;;;;;;;;;;;;;;2.43;77.89;100547.21;105042;1288;71466;-77
2023/03/04 04:48:55;;;;;;;;;;;;;;;2.44;77.89;100542.30;105158;1287;63035;-77
2023/03/04 04:51:41;;;;;;;;;;;;;;;2.43;77.82;100541.27;105207;1288;61936;-77
2023/03/04 04:54:27;;;;;;;;;;;;;;;2.43;77.85;100537.52;105131;1287;76703;-77
2023/03/04 04:57:13;;;;;;;;;;;;;;;2.43;77.88;100532.75;105065;1288;69956;-77
2023/03/04 04:59:59;;;;;;;;;;;;;;;2.43;77.86;100531.57;105150;1288;73926;-78
2023/03/04 05:02:45;;;;;;;;;;;;;;;2.44;77.90;100529.04;105164;1288;62084;-77
2023/03/04 05:05:31;;;;;;;;;;;;;;;2.45;77.96;100526.49;105032;1288;60173;-77
2023/03/04 05:08:18;;;;;;;;;;;;;;;2.45;77.90;100523.95;105153;1290;75376;-77
2023/03/04 05:11:04;;;;;;;;;;;;;;;2.46;77.94;100525.32;105109;1288;67320;-78
2023/03/04 05:13:50;;;;;;;;;;;;;;;2.46;77.90;100529.05;105081;1288;72885;-77
2023/03/04 05:16:37;;;;;;;;;;;;;;;2.47;77.96;100530.95;105200;1288;60157;-77
2023/03/04 05:19:23;;;;;;;;;;;;;;;2.47;77.97;100524.15;105216;1290;62123;-77
2023/03/04 05:22:09;;;;;;;;;;;;;;;2.47;77.95;100523.47;105177;1288;76239;-77
2023/03/04 05:24:56;;;;;;;;;;;;;;;2.48;77.91;100523.64;105204;1288;68197;-77
2023/03/04 05:27:42;;;;;;;;;;;;;;;2.49;77.98;100521.46;105187;1288;71389;-77
2023/03/04 05:30:28;;;;;;;;;;;;;;;2.49;77.99;100517.88;105153;1287;62047;-77
2023/03/04 05:33:15;;;;;;;;;;;;;;;2.48;77.98;100517.35;105116;1288;60761;-77
2023/03/04 05:36:02;;;;;;;;;;;;;;;2.48;77.99;100516.00;104993;1290;74808;-76
2023/03/04 05:38:48;;;;;;;;;;;;;;;2.48;77.93;100514.13;105191;1288;68600;-77
2023/03/04 05:41:34;;;;;;;;;;;;;;;2.49;77.98;100513.30;105218;1288;73778;-78
2023/03/04 05:44:20;;;;;;;;;;;;;;;2.51;77.99;100514.15;105151;1288;60801;-77
2023/03/04 05:47:06;;;;;;;;;;;;;;;2.52;78.00;100509.09;105103;1293;60300;-77
2023/03/04 05:49:53;;;;;;;;;;;;;;;2.52;78.00;100513.00;105155;1290;78335;-77
2023/03/04 05:52:39;;;;;;;;;;;;;;;2.53;77.96;100513.18;105088;1288;68623;-77
2023/03/04 05:55:27;;;;;;;;;;;;;;;2.53;77.96;100510.98;105102;1288;72120;-77
2023/03/04 05:58:14;;;;;;;;;;;;;;;2.53;77.97;100510.12;105070;1288;62091;-77
2023/03/04 06:01:01;;;;;;;;;;;;;;;2.53;78.01;100506.72;106080;1288;59981;-78
2023/03/04 06:03:48;;;;;;;;;;;;;;;2.54;78.03;100498.58;106110;1290;74147;-78
2023/03/04 06:06:33;;;;;;;;;;;;;;;2.56;78.03;100502.00;106030;1290;67841;-78
2023/03/04 06:09:20;;;;;;;;;;;;;;;2.58;78.00;100498.95;106014;1288;74175;-78
2023/03/04 06:12:06;;;;;;;;;;;;;;;2.59;78.00;100509.18;106010;1291;60318;-77
2023/03/04 06:14:52;;;;;;;;;;;;;;;2.60;77.97;100511.91;106011;1289;60393;-77
2023/03/04 06:17:39;;;;;;;;;;;;;;;2.61;78.00;100511.74;105107;1290;76811;-77
2023/03/04 06:20:25;;;;;;;;;;;;;;;2.62;78.04;100501.88;105087;1293;67345;-77
2023/03/04 06:23:11;;;;;;;;;;;;;;;2.64;78.01;100508.03;105054;1289;73186;-77
2023/03/04 06:25:58;;;;;;;;;;;;;;;2.64;78.04;100507.02;104999;1288;62047;-77
2023/03/04 06:28:44;;;;;;;;;;;;;;;2.64;78.05;100507.54;105094;1288;60351;-77
2023/03/04 06:31:30;;;;;;;;;;;;;;;2.66;78.13;100508.74;105026;1288;74282;-77
2023/03/04 06:34:17;;;;;;;;;;;;;;;2.68;78.07;100504.02;105049;1291;69320;-77
2023/03/04 06:37:03;;;;;;;;;;;;;;;2.69;78.12;100507.94;104971;1288;71293;-77
2023/03/04 06:39:49;;;;;;;;;;;;;;;2.69;78.12;100505.21;105072;1290;61968;-77
2023/03/04 06:42:35;;;;;;;;;;;;;;;2.70;78.04;100507.27;105095;1288;60470;-77
2023/03/04 06:45:21;;;;;;;;;;;;;;;2.71;78.07;100502.86;105068;1288;74953;-78
2023/03/04 06:48:07;;;;;;;;;;;;;;;2.72;78.10;100506.10;105106;1288;67251;-78
2023/03/04 06:50:53;;;;;;;;;;;;;;;2.73;78.15;100504.59;105025;1288;75414;-78
2023/03/04 06:53:40;;;;;;;;;;;;;;;2.75;78.12;100507.50;105122;1288;62169;-78
2023/03/04 06:56:26;;;;;;;;;;;;;;;2.77;78.17;100507.88;104828;1288;61967;-78
2023/03/04 06:59:12;;;;;;;;;;;;;;;2.78;78.19;100511.46;105127;1288;74055;-78
2023/03/04 07:01:58;;;;;;;;;;;;;;;2.80;78.13;100509.61;105175;1287;67086;-78
2023/03/04 07:04:44;;;;;;;;;;;;;;;2.81;78.17;100505.04;105129;1288;75618;-78
2023/03/04 07:07:30;;;;;;;;;;;;;;;2.81;78.14;100507.25;105154;1287;62678;-78
2023/03/04 07:10:17;;;;;;;;;;;;;;;2.82;78.17;100508.13;100997;1290;5270339;-79
2023/03/04 07:13:04;;;;;;;;;;;;;;;2.84;78.14;100507.65;105020;1288;73196;-78
2023/03/04 07:15:50;;;;;;;;;;;;;;;2.86;78.18;100510.05;105166;1290;69984;-78
2023/03/04 07:18:36;;;;;;;;;;;;;;;2.88;78.16;100511.45;105015;1288;71388;-78
2023/03/04 07:21:22;;;;;;;;;;;;;;;2.89;78.20;100513.33;105062;1289;62009;-78
2023/03/04 07:24:09;;;;;;;;;;;;;;;2.91;78.24;100510.62;104074;1288;1277297;-79
2023/03/04 07:26:55;;;;;;;;;;;;;;;2.92;78.16;100508.60;106137;1287;74907;-79
2023/03/04 07:29:41;;;;;;;;;;;;;;;2.94;78.19;100507.10;106223;1288;67403;-79
2023/03/04 07:32:27;;;;;;;;;;;;;;;2.97;78.22;100509.86;106140;1288;71397;-79
2023/03/04 07:35:13;;;;;;;;;;;;;;;3.01;78.24;100506.34;106040;1293;60193;-79
2023/03/04 07:37:58;;;;;;;;;;;;;;;3.04;78.23;100503.14;106106;1287;59915;-78
2023/03/04 07:40:44;;;;;;;;;;;;;;;3.08;78.19;100504.89;106205;1288;73962;-79
2023/03/04 07:43:30;;;;;;;;;;;;;;;3.12;78.20;100500.66;106168;1288;67256;-79
2023/03/04 07:46:17;;;;;;;;;;;;;;;3.15;78.21;100502.23;106152;1288;71382;-79
2023/03/04 07:49:03;;;;;;;;;;;;;;;3.19;78.22;100500.05;106121;1291;60570;-79
2023/03/04 07:51:49;;;;;;;;;;;;;;;3.23;78.23;100508.80;106153;1290;59585;-79
2023/03/04 07:54:35;;;;;;;;;;;;;;;3.25;78.23;100499.27;105958;1288;74677;-79
2023/03/04 07:57:21;;;;;;;;;;;;;;;3.28;78.26;100496.59;106184;1288;67503;-79
2023/03/04 08:00:07;;;;;;;;;;;;;;;3.30;78.27;100493.90;106217;1288;71371;-79
2023/03/04 08:02:53;;;;;;;;;;;;;;;3.34;78.23;100496.16;106209;1288;60054;-74
2023/03/04 08:05:39;;;;;;;;;;;;;;;3.38;78.33;100495.85;106080;1288;61265;-75
2023/03/04 08:08:25;;;;;;;;;;;;;;;3.41;78.26;100497.77;106124;1290;73247;-74
2023/03/04 08:11:13;;;;;;;;;;;;;;;3.45;78.25;100494.56;105690;1289;68437;-75
2023/03/04 08:13:59;;;;;;;;;;;;;;;3.47;78.30;100494.59;105069;1290;71269;-74
2023/03/04 08:16:45;;;;;;;;;;;;;;;3.51;78.34;100496.52;105014;1293;61949;-75
2023/03/04 08:19:31;;;;;;;;;;;;;;;3.54;78.35;100492.63;105159;1289;61975;-75
2023/03/04 08:22:17;;;;;;;;;;;;;;;3.57;78.36;100495.38;105114;1293;76814;-75
2023/03/04 08:25:04;;;;;;;;;;;;;;;3.59;78.42;100490.12;105160;1290;67016;-74
2023/03/04 08:27:50;;;;;;;;;;;;;;;3.61;78.41;100484.52;105199;1291;72166;-74
2023/03/04 08:30:36;;;;;;;;;;;;;;;3.64;78.46;100489.13;105186;1290;62190;-77
2023/03/04 08:33:22;;;;;;;;;;;;;;;3.65;78.45;100488.61;105201;1288;62008;-76
2023/03/04 08:36:09;;;;;;;;;;;;;;;3.66;78.50;100484.36;105131;1288;76413;-76
2023/03/04 08:38:55;;;;;;;;;;;;;;;3.69;78.49;100483.88;105096;1294;68918;-79
2023/03/04 08:41:42;;;;;;;;;;;;;;;3.71;78.53;100481.17;105033;1288;72412;-73
2023/03/04 08:44:28;;;;;;;;;;;;;;;3.74;78.50;100478.98;105083;1288;59450;-73
2023/03/04 08:47:14;;;;;;;;;;;;;;;3.76;78.53;100473.04;105151;1291;62407;-73
2023/03/04 08:50:00;;;;;;;;;;;;;;;3.79;78.56;100473.07;105197;1288;74257;-73
2023/03/04 08:52:46;;;;;;;;;;;;;;;3.81;78.56;100469.16;105128;1288;67242;-73
2023/03/04 08:55:32;;;;;;;;;;;;;;;3.82;78.60;100467.48;105048;1288;72463;-75
2023/03/04 08:58:18;;;;;;;;;;;;;;;3.83;78.54;100462.02;105203;1288;62287;-75
2023/03/04 09:01:06;;;;;;;;;;;;;;;3.85;78.53;100461.88;105149;1288;63120;-74
2023/03/04 09:03:53;;;;;;;;;;;;;;;3.89;78.59;100464.64;105075;1288;75342;-73
2023/03/04 09:06:38;;;;;;;;;;;;;;;3.95;78.67;100465.54;105200;1288;68267;-74
2023/03/04 09:09:25;;;;;;;;;;;;;;;3.97;78.64;100465.73;105117;1289;73847;-74
2023/03/04 09:12:11;;;;;;;;;;;;;;;4.03;78.72;100459.30;105079;1288;61908;-75
2023/03/04 09:14:57;;;;;;;;;;;;;;;4.06;78.62;100457.62;105184;1288;59992;-74
2023/03/04 09:17:44;;;;;;;;;;;;;;;4.08;78.69;100459.16;105166;1291;78885;-74
2023/03/04 09:20:31;;;;;;;;;;;;;;;4.14;78.74;100460.91;105064;1288;67732;-75
2023/03/04 09:23:18;;;;;;;;;;;;;;;4.19;78.63;100459.90;105211;1289;73372;-74
2023/03/04 09:26:23;;;;;;;;;;;;;;;4.23;78.74;100457.71;104981;1287;61911;-74
2023/03/04 09:29:09;;;;;;;;;;;;;;;4.28;78.72;100458.27;105184;1288;61348;-75
2023/03/04 09:31:55;;;;;;;;;;;;;;;4.32;78.73;100459.48;105054;1288;75761;-73
2023/03/04 09:34:42;;;;;;;;;;;;;;;4.34;78.64;100454.21;105168;1288;68583;-74
2023/03/04 09:37:28;;;;;;;;;;;;;;;4.36;78.78;100454.05;105072;1292;73876;-76
2023/03/04 09:40:23;;;;;;;;;;;;;;;4.37;78.80;100450.13;105059;1288;62097;-76
2023/03/04 09:43:12;;;;;;;;;;;;;;;4.41;78.82;100448.63;104859;1287;60396;-76
2023/03/04 09:46:00;;;;;;;;;;;;;;;4.42;78.82;100449.31;105162;1291;74218;-76
2023/03/04 09:48:47;;;;;;;;;;;;;;;4.43;78.83;100447.79;105097;1288;68879;-76
2023/03/04 09:51:55;;;;;;;;;;;;;;;4.44;78.90;100451.03;105164;1290;71303;-76
2023/03/04 09:55:00;;;;;;;;;;;;;;;4.44;78.82;100446.42;104718;1297;62169;-76
2023/03/04 09:58:06;;;;;;;;;;;;;;;4.45;78.89;100448.31;104727;1294;61987;-76
2023/03/04 10:01:18;;;;;;;;;;;;;;;4.49;78.97;100447.98;104089;1301;74314;-76
2023/03/04 10:04:21;;;;;;;;;;;;;;;4.49;78.87;100444.08;104182;1304;68066;-76
2023/03/04 10:07:17;;;;;;;;;;;;;;;4.51;78.97;100441.69;104120;1305;72114;-76
2023/03/04 10:10:12;;;;;;;;;;;;;;;4.55;79.02;100439.66;104208;1300;62368;-76
2023/03/04 10:12:59;;;;;;;;;;;;;;;4.58;79.03;100443.61;104174;1305;60409;-76
2023/03/04 10:15:49;;;;;;;;;;;;;;;4.61;79.04;100442.09;104082;1300;76535;-76
2023/03/04 10:18:40;;;;;;;;;;;;;;;4.69;79.10;100445.36;104193;1302;67494;-76
2023/03/04 10:21:31;;;;;;;;;;;;;;;4.72;79.02;100444.17;104244;1303;70440;-76
2023/03/04 10:24:23;;;;;;;;;;;;;;;4.74;79.03;100447.08;104141;1300;60486;-76
2023/03/04 10:27:12;;;;;;;;;;;;;;;4.76;79.12;100446.75;105031;1300;59819;-76
2023/03/04 10:29:59;;;;;;;;;;;;;;;4.80;79.11;100446.77;104994;1300;74619;-76
2023/03/04 10:32:46;;;;;;;;;;;;;;;4.88;79.29;100438.43;105211;1301;67573;-77
2023/03/04 10:35:35;;;;;;;;;;;;;;;5.04;79.30;100436.45;105249;1302;71497;-77
2023/03/04 10:38:22;;;;;;;;;;;;;;;5.12;79.23;100435.29;105637;1288;60433;-77
2023/03/04 10:41:23;;;;;;;;;;;;;;;5.21;79.31;100433.25;105895;1294;59875;-77
2023/03/04 10:44:29;;;;;;;;;;;;;;;5.32;79.35;100429.50;106013;1288;76184;-77
2023/03/04 10:47:16;;;;;;;;;;;;;;;5.46;79.27;100427.48;105417;1298;69081;-77
2023/03/04 10:50:03;;;;;;;;;;;;;;;5.54;79.15;100422.70;105414;1294;72708;-77
2023/03/04 10:52:51;;;;;;;;;;;;;;;5.57;79.20;100422.38;105470;1294;60300;-77
2023/03/04 10:55:43;;;;;;;;;;;;;;;5.64;79.27;100421.02;105448;1298;60689;-77
2023/03/04 10:58:30;;;;;;;;;;;;;;;5.69;79.30;100423.07;105468;1296;75629;-76
2023/03/04 11:01:23;;;;;;;;;;;;;;;5.72;79.24;100420.49;105450;1299;67182;-76
2023/03/04 11:04:21;;;;;;;;;;;;;;;5.78;79.22;100415.17;105444;1294;71448;-76
2023/03/04 11:07:09;;;;;;;;;;;;;;;5.88;79.28;100413.14;105409;1296;59974;-75
2023/03/04 11:10:05;;;;;;;;;;;;;;;6.00;79.23;100414.70;105387;1297;60150;-75
2023/03/04 11:13:18;;;;;;;;;;;;;;;6.08;79.14;100403.23;105428;1296;74284;-75
2023/03/04 11:16:21;;;;;;;;;;;;;;;6.11;79.04;100407.51;104913;1302;69296;-76
2023/03/04 11:19:15;;;;;;;;;;;;;;;6.09;78.91;100409.22;104804;1303;72618;-76
2023/03/04 11:22:02;;;;;;;;;;;;;;;6.02;78.82;100414.18;104826;1302;60061;-76
2023/03/04 11:25:08;;;;;;;;;;;;;;;5.97;78.91;100410.77;104560;1300;60328;-76
2023/03/04 11:27:56;;;;;;;;;;;;;;;6.01;78.95;100410.77;104534;1296;75510;-76
2023/03/04 11:30:44;;;;;;;;;;;;;;;6.05;78.87;100405.29;104574;1296;69444;-76
2023/03/04 11:33:41;;;;;;;;;;;;;;;6.04;78.75;100397.07;104530;1300;73942;-76
2023/03/04 11:36:48;;;;;;;;;;;;;;;6.06;78.79;100397.92;104505;1299;62189;-75
2023/03/04 11:39:37;;;;;;;;;;;;;;;6.09;78.55;100395.87;104458;1295;60329;-75
2023/03/04 11:42:29;;;;;;;;;;;;;;;6.08;78.66;100393.48;104591;1294;78593;-75
2023/03/04 11:45:18;;;;;;;;;;;;;;;6.06;78.50;100392.45;104561;1297;68168;-75
2023/03/04 11:48:22;;;;;;;;;;;;;;;6.03;78.23;100395.36;104454;1299;72794;-75
2023/03/04 11:51:30;;;;;;;;;;;;;;;5.98;78.54;100399.30;104565;1297;60044;-75
2023/03/04 11:54:36;;;;;;;;;;;;;;;5.95;78.47;100388.19;104514;1299;62018;-76
2023/03/04 11:57:42;;;;;;;;;;;;;;;5.91;78.42;100393.14;104219;1303;75349;-76
2023/03/04 12:00:54;;;;;;;;;;;;;;;5.86;78.36;100399.27;103938;1304;69917;-76
2023/03/04 12:03:52;;;;;;;;;;;;;;;5.86;78.39;100399.62;103288;1314;70724;-76
2023/03/04 12:06:38;;;;;;;;;;;;;;;5.85;78.36;100412.96;103276;1313;62816;-76
2023/03/04 12:09:36;;;;;;;;;;;;;;;5.79;78.38;100421.16;103297;1309;62910;-76
2023/03/04 12:12:48;;;;;;;;;;;;;;;5.66;78.27;100435.89;103312;1311;73864;-75
2023/03/04 12:15:46;;;;;;;;;;;;;;;5.33;78.23;100454.13;102843;1316;68481;-75
2023/03/04 12:18:42;;;;;;;;;;;;;;;4.92;78.39;100457.59;102794;1314;72643;-75
2023/03/04 12:21:51;;;;;;;;;;;;;;;4.74;78.75;100458.86;102888;1314;61897;-75
2023/03/04 12:24:47;;;;;;;;;;;;;;;4.55;78.74;100459.98;102525;1331;62199;-75
2023/03/04 12:27:52;;;;;;;;;;;;;;;4.46;78.84;100457.54;102408;1319;75442;-75
2023/03/04 12:30:57;;;;;;;;;;;;;;;4.46;79.08;100458.90;102493;1314;67766;-75
2023/03/04 12:34:02;;;;;;;;;;;;;;;4.54;79.26;100459.45;102921;1314;71373;-75
2023/03/04 12:36:54;;;;;;;;;;;;;;;4.61;79.30;100459.50;102955;1315;61910;-75
2023/03/04 12:39:46;;;;;;;;;;;;;;;4.73;79.40;100462.61;103438;1309;61793;-75
2023/03/04 12:42:59;;;;;;;;;;;;;;;4.82;79.41;100465.40;104005;1302;75874;-75
2023/03/04 12:46:05;;;;;;;;;;;;;;;4.92;79.51;100467.14;103695;1311;67316;-75
2023/03/04 12:49:15;;;;;;;;;;;;;;;5.03;79.42;100463.10;102953;1317;75543;-76
2023/03/04 12:52:22;;;;;;;;;;;;;;;5.11;79.50;100468.09;103913;1313;59786;-76
2023/03/04 12:55:14;;;;;;;;;;;;;;;5.17;79.51;100468.97;103673;1315;60199;-76
2023/03/04 12:58:01;;;;;;;;;;;;;;;5.20;79.37;100470.84;103718;1315;76259;-76
2023/03/04 13:01:07;;;;;;;;;;;;;;;5.21;79.37;100474.23;103641;1311;67998;-76
2023/03/04 13:03:57;;;;;;;;;;;;;;;5.22;79.31;100476.30;103614;1319;73669;-76
2023/03/04 13:06:52;;;;;;;;;;;;;;;5.21;79.35;100480.06;103668;1314;60718;-76
2023/03/04 13:09:41;;;;;;;;;;;;;;;5.19;79.37;100481.10;103642;1315;60474;-76
2023/03/04 13:12:27;;;;;;;;;;;;;;;5.16;79.10;100485.70;103643;1314;75916;-76
2023/03/04 13:15:13;;;;;;;;;;;;;;;5.07;78.99;100486.70;103558;1317;66615;-76
2023/03/04 13:18:01;;;;;;;;;;;;;;;5.00;79.00;100487.34;103641;1315;72965;-76
2023/03/04 13:21:03;;;;;;;;;;;;;;;4.94;78.97;100488.52;103541;1319;60640;-76
2023/03/04 13:23:50;;;;;;;;;;;;;;;4.93;79.04;100491.41;104468;1306;59843;-76
2023/03/04 13:26:37;;;;;;;;;;;;;;;4.94;79.19;100488.00;104877;1299;74243;-76
2023/03/04 13:29:43;;;;;;;;;;;;;;;5.02;79.38;100488.55;104866;1306;68358;-76
2023/03/04 13:32:37;;;;;;;;;;;;;;;5.11;79.26;100495.60;104815;1301;71494;-76
2023/03/04 13:35:41;;;;;;;;;;;;;;;5.10;78.85;100495.94;104844;1302;59259;-76
2023/03/04 13:38:47;;;;;;;;;;;;;;;5.11;78.99;100499.69;104987;1302;60228;-76
2023/03/04 13:41:46;;;;;;;;;;;;;;;5.15;78.90;100500.74;104853;1303;74197;-76
2023/03/04 13:44:44;;;;;;;;;;;;;;;5.16;78.80;100502.45;104966;1302;67465;-76
2023/03/04 13:47:40;;;;;;;;;;;;;;;5.15;78.68;100499.54;104838;1303;71155;-76
2023/03/04 13:50:28;;;;;;;;;;;;;;;5.11;78.46;100504.82;104869;1302;60336;-76
2023/03/04 13:53:40;;;;;;;;;;;;;;;5.02;78.25;100497.94;104923;1301;60302;-76
2023/03/04 13:56:49;;;;;;;;;;;;;;;4.93;78.30;100498.06;104742;1301;74306;-76
2023/03/04 14:00:14;;;;;;;;;;;;;;;4.90;78.35;100501.30;104436;1308;69178;-76
2023/03/04 14:03:11;;;;;;;;;;;;;;;4.89;78.32;100496.52;104106;1314;71703;-76
2023/03/04 14:06:16;;;;;;;;;;;;;;;4.87;78.20;100497.70;104098;1309;59981;-76
2023/03/04 14:09:11;;;;;;;;;;;;;;;4.90;78.21;100497.03;104169;1312;60371;-76
2023/03/04 14:12:02;;;;;;;;;;;;;;;4.93;78.19;100499.09;104592;1308;74158;-76
2023/03/04 14:14:50;;;;;;;;;;;;;;;4.92;77.81;100498.41;104736;1306;67508;-76
2023/03/04 14:17:36;;;;;;;;;;;;;;;4.93;77.84;100500.46;104627;1303;72123;-76
2023/03/04 14:20:25;;;;;;;;;;;;;;;4.98;77.81;100495.19;105054;1299;59915;-76
2023/03/04 14:23:22;;;;;;;;;;;;;;;5.00;77.72;100502.38;105101;1299;61123;-76
2023/03/04 14:26:17;;;;;;;;;;;;;;;4.98;77.54;100502.03;105041;1299;75031;-76
2023/03/04 14:29:17;;;;;;;;;;;;;;;4.94;77.41;100507.30;105124;1299;67301;-76
2023/03/04 14:32:04;;;;;;;;;;;;;;;4.87;77.32;100505.55;105100;1300;73017;-76